sensor_id;sensor_type;location;lat;lon;timestamp;P1;durP1;ratioP1;P2;durP2;ratioP2
6809;SDS011;3443;48.812;9.112;2023-07-29T00:00:39;0.40;;;0.40;;
6809;SDS011;3443;48.812;9.112;2023-07-29T00:03:05;0.50;;;0.50;;
6809;SDS011;3443;48.812;9.112;2023-07-29T00:05:30;0.22;;;0.22;;
6809;SDS011;3443;48.812;9.112;2023-07-29T00:07:56;0.47;;;0.40;;
6809;SDS011;3443;48.812;9.112;2023-07-29T00:10:22;0.30;;;0.30;;
6809;SDS011;3443;48.812;9.112;2023-07-29T00:12:48;0.40;;;0.40;;
6809;SDS011;3443;48.812;9.112;2023-07-29T00:15:15;0.55;;;0.40;;
6809;SDS011;3443;48.812;9.112;2023-07-29T00:17:41;0.40;;;0.40;;
6809;SDS011;3443;48.812;9.112;2023-07-29T00:20:08;0.25;;;0.25;;
6809;SDS011;3443;48.812;9.112;2023-07-29T00:22:33;0.68;;;0.43;;
6809;SDS011;3443;48.812;9.112;2023-07-29T00:24:59;0.38;;;0.38;;
6809;SDS011;3443;48.812;9.112;2023-07-29T00:27:25;1.27;;;0.40;;
6809;SDS011;3443;48.812;9.112;2023-07-29T00:29:52;0.40;;;0.40;;
6809;SDS011;3443;48.812;9.112;2023-07-29T00:32:17;0.40;;;0.40;;
6809;SDS011;3443;48.812;9.112;2023-07-29T00:34:43;0.32;;;0.32;;
6809;SDS011;3443;48.812;9.112;2023-07-29T00:37:09;0.57;;;0.40;;
6809;SDS011;3443;48.812;9.112;2023-07-29T00:39:35;0.30;;;0.30;;
6809;SDS011;3443;48.812;9.112;2023-07-29T00:42:02;0.50;;;0.50;;
6809;SDS011;3443;48.812;9.112;2023-07-29T00:44:28;0.80;;;0.50;;
6809;SDS011;3443;48.812;9.112;2023-07-29T00:46:53;2.35;;;0.43;;
6809;SDS011;3443;48.812;9.112;2023-07-29T00:49:20;0.85;;;0.50;;
6809;SDS011;3443;48.812;9.112;2023-07-29T00:51:46;0.57;;;0.57;;
6809;SDS011;3443;48.812;9.112;2023-07-29T00:54:12;0.63;;;0.40;;
6809;SDS011;3443;48.812;9.112;2023-07-29T00:56:40;0.55;;;0.50;;
6809;SDS011;3443;48.812;9.112;2023-07-29T00:59:06;1.35;;;0.40;;
6809;SDS011;3443;48.812;9.112;2023-07-29T01:01:31;0.52;;;0.40;;
6809;SDS011;3443;48.812;9.112;2023-07-29T01:03:57;0.52;;;0.45;;
6809;SDS011;3443;48.812;9.112;2023-07-29T01:09:10;0.30;;;0.30;;
6809;SDS011;3443;48.812;9.112;2023-07-29T01:14:47;0.50;;;0.50;;
6809;SDS011;3443;48.812;9.112;2023-07-29T01:17:36;0.65;;;0.40;;
6809;SDS011;3443;48.812;9.112;2023-07-29T01:20:08;0.28;;;0.28;;
6809;SDS011;3443;48.812;9.112;2023-07-29T01:22:39;0.40;;;0.40;;
6809;SDS011;3443;48.812;9.112;2023-07-29T01:25:05;0.40;;;0.40;;
6809;SDS011;3443;48.812;9.112;2023-07-29T01:27:31;1.23;;;0.40;;
6809;SDS011;3443;48.812;9.112;2023-07-29T01:29:57;0.55;;;0.55;;
6809;SDS011;3443;48.812;9.112;2023-07-29T01:32:37;1.58;;;0.60;;
6809;SDS011;3443;48.812;9.112;2023-07-29T01:37:55;1.65;;;0.52;;
6809;SDS011;3443;48.812;9.112;2023-07-29T01:40:25;1.45;;;0.40;;
6809;SDS011;3443;48.812;9.112;2023-07-29T01:42:53;0.60;;;0.60;;
6809;SDS011;3443;48.812;9.112;2023-07-29T01:45:22;1.30;;;0.70;;
6809;SDS011;3443;48.812;9.112;2023-07-29T01:47:49;0.55;;;0.55;;
6809;SDS011;3443;48.812;9.112;2023-07-29T01:50:15;1.02;;;0.50;;
6809;SDS011;3443;48.812;9.112;2023-07-29T01:52:40;0.30;;;0.30;;
6809;SDS011;3443;48.812;9.112;2023-07-29T01:55:06;0.60;;;0.60;;
6809;SDS011;3443;48.812;9.112;2023-07-29T01:57:32;0.60;;;0.60;;
6809;SDS011;3443;48.812;9.112;2023-07-29T01:59:57;0.70;;;0.70;;
6809;SDS011;3443;48.812;9.112;2023-07-29T02:02:24;0.60;;;0.60;;
6809;SDS011;3443;48.812;9.112;2023-07-29T02:04:50;1.00;;;0.70;;
6809;SDS011;3443;48.812;9.112;2023-07-29T02:07:17;2.17;;;0.68;;
6809;SDS011;3443;48.812;9.112;2023-07-29T02:09:44;1.17;;;0.80;;
6809;SDS011;3443;48.812;9.112;2023-07-29T02:12:10;0.95;;;0.70;;
6809;SDS011;3443;48.812;9.112;2023-07-29T02:14:35;0.55;;;0.55;;
6809;SDS011;3443;48.812;9.112;2023-07-29T02:17:01;0.40;;;0.40;;
6809;SDS011;3443;48.812;9.112;2023-07-29T02:19:26;0.47;;;0.47;;
6809;SDS011;3443;48.812;9.112;2023-07-29T02:21:52;0.60;;;0.60;;
6809;SDS011;3443;48.812;9.112;2023-07-29T02:24:18;0.68;;;0.68;;
6809;SDS011;3443;48.812;9.112;2023-07-29T02:26:43;0.50;;;0.50;;
6809;SDS011;3443;48.812;9.112;2023-07-29T02:29:09;0.70;;;0.70;;
6809;SDS011;3443;48.812;9.112;2023-07-29T02:31:34;1.20;;;0.80;;
6809;SDS011;3443;48.812;9.112;2023-07-29T02:34:02;0.70;;;0.70;;
6809;SDS011;3443;48.812;9.112;2023-07-29T02:36:28;0.63;;;0.63;;
6809;SDS011;3443;48.812;9.112;2023-07-29T02:38:53;0.70;;;0.70;;
6809;SDS011;3443;48.812;9.112;2023-07-29T02:41:19;0.60;;;0.60;;
6809;SDS011;3443;48.812;9.112;2023-07-29T02:43:48;0.77;;;0.70;;
6809;SDS011;3443;48.812;9.112;2023-07-29T02:46:14;0.60;;;0.60;;
6809;SDS011;3443;48.812;9.112;2023-07-29T02:48:39;2.15;;;0.63;;
6809;SDS011;3443;48.812;9.112;2023-07-29T02:51:05;1.58;;;0.63;;
6809;SDS011;3443;48.812;9.112;2023-07-29T02:53:30;1.02;;;0.50;;
6809;SDS011;3443;48.812;9.112;2023-07-29T02:55:56;1.40;;;0.50;;
6809;SDS011;3443;48.812;9.112;2023-07-29T02:58:22;1.55;;;0.68;;
6809;SDS011;3443;48.812;9.112;2023-07-29T03:00:47;0.55;;;0.52;;
6809;SDS011;3443;48.812;9.112;2023-07-29T03:03:13;1.40;;;0.45;;
6809;SDS011;3443;48.812;9.112;2023-07-29T03:05:39;0.50;;;0.50;;
6809;SDS011;3443;48.812;9.112;2023-07-29T03:08:05;0.40;;;0.40;;
6809;SDS011;3443;48.812;9.112;2023-07-29T03:10:30;0.60;;;0.60;;
6809;SDS011;3443;48.812;9.112;2023-07-29T03:12:57;0.82;;;0.60;;
6809;SDS011;3443;48.812;9.112;2023-07-29T03:15:23;1.33;;;0.82;;
6809;SDS011;3443;48.812;9.112;2023-07-29T03:17:50;0.85;;;0.55;;
6809;SDS011;3443;48.812;9.112;2023-07-29T03:20:15;0.63;;;0.63;;
6809;SDS011;3443;48.812;9.112;2023-07-29T03:22:42;0.73;;;0.73;;
6809;SDS011;3443;48.812;9.112;2023-07-29T03:25:08;0.68;;;0.60;;
6809;SDS011;3443;48.812;9.112;2023-07-29T03:27:34;3.13;;;0.88;;
6809;SDS011;3443;48.812;9.112;2023-07-29T03:30:01;0.90;;;0.60;;
6809;SDS011;3443;48.812;9.112;2023-07-29T03:32:27;1.35;;;0.88;;
6809;SDS011;3443;48.812;9.112;2023-07-29T03:34:53;1.17;;;0.90;;
6809;SDS011;3443;48.812;9.112;2023-07-29T03:37:18;2.13;;;1.00;;
6809;SDS011;3443;48.812;9.112;2023-07-29T03:39:44;0.70;;;0.70;;
6809;SDS011;3443;48.812;9.112;2023-07-29T03:42:10;2.08;;;0.77;;
6809;SDS011;3443;48.812;9.112;2023-07-29T03:44:36;1.25;;;0.80;;
6809;SDS011;3443;48.812;9.112;2023-07-29T03:47:04;0.60;;;0.60;;
6809;SDS011;3443;48.812;9.112;2023-07-29T03:49:30;1.48;;;0.95;;
6809;SDS011;3443;48.812;9.112;2023-07-29T03:51:56;0.90;;;0.90;;
6809;SDS011;3443;48.812;9.112;2023-07-29T03:54:22;0.95;;;0.95;;
6809;SDS011;3443;48.812;9.112;2023-07-29T03:56:47;0.75;;;0.50;;
6809;SDS011;3443;48.812;9.112;2023-07-29T03:59:13;0.75;;;0.63;;
6809;SDS011;3443;48.812;9.112;2023-07-29T04:01:39;0.90;;;0.90;;
6809;SDS011;3443;48.812;9.112;2023-07-29T04:04:05;0.50;;;0.50;;
6809;SDS011;3443;48.812;9.112;2023-07-29T04:06:30;0.85;;;0.70;;
6809;SDS011;3443;48.812;9.112;2023-07-29T04:08:57;1.15;;;0.77;;
6809;SDS011;3443;48.812;9.112;2023-07-29T04:11:23;0.95;;;0.95;;
6809;SDS011;3443;48.812;9.112;2023-07-29T04:13:49;1.00;;;1.00;;
6809;SDS011;3443;48.812;9.112;2023-07-29T04:16:14;0.90;;;0.90;;
6809;SDS011;3443;48.812;9.112;2023-07-29T04:18:41;0.80;;;0.80;;
6809;SDS011;3443;48.812;9.112;2023-07-29T04:21:07;1.55;;;0.80;;
6809;SDS011;3443;48.812;9.112;2023-07-29T04:23:33;1.75;;;0.82;;
6809;SDS011;3443;48.812;9.112;2023-07-29T04:26:00;0.60;;;0.60;;
6809;SDS011;3443;48.812;9.112;2023-07-29T04:28:26;1.15;;;1.00;;
6809;SDS011;3443;48.812;9.112;2023-07-29T04:30:51;1.33;;;0.80;;
6809;SDS011;3443;48.812;9.112;2023-07-29T04:33:17;0.98;;;0.98;;
6809;SDS011;3443;48.812;9.112;2023-07-29T04:35:43;2.88;;;1.08;;
6809;SDS011;3443;48.812;9.112;2023-07-29T04:38:09;1.52;;;0.95;;
6809;SDS011;3443;48.812;9.112;2023-07-29T04:40:34;1.27;;;1.20;;
6809;SDS011;3443;48.812;9.112;2023-07-29T04:43:01;1.20;;;1.20;;
6809;SDS011;3443;48.812;9.112;2023-07-29T04:45:30;1.65;;;1.08;;
6809;SDS011;3443;48.812;9.112;2023-07-29T04:47:56;1.08;;;1.08;;
6809;SDS011;3443;48.812;9.112;2023-07-29T04:50:22;2.60;;;1.25;;
6809;SDS011;3443;48.812;9.112;2023-07-29T04:52:48;1.45;;;1.02;;
6809;SDS011;3443;48.812;9.112;2023-07-29T04:55:14;1.05;;;1.05;;
6809;SDS011;3443;48.812;9.112;2023-07-29T04:57:40;2.30;;;1.00;;
6809;SDS011;3443;48.812;9.112;2023-07-29T05:00:06;1.75;;;1.00;;
6809;SDS011;3443;48.812;9.112;2023-07-29T05:02:32;2.10;;;1.10;;
6809;SDS011;3443;48.812;9.112;2023-07-29T05:04:58;2.33;;;1.20;;
6809;SDS011;3443;48.812;9.112;2023-07-29T05:07:24;1.95;;;1.48;;
6809;SDS011;3443;48.812;9.112;2023-07-29T05:09:50;1.45;;;1.08;;
6809;SDS011;3443;48.812;9.112;2023-07-29T05:12:16;1.30;;;1.20;;
6809;SDS011;3443;48.812;9.112;2023-07-29T05:14:42;1.25;;;1.20;;
6809;SDS011;3443;48.812;9.112;2023-07-29T05:17:08;2.08;;;1.20;;
6809;SDS011;3443;48.812;9.112;2023-07-29T05:19:34;1.20;;;1.20;;
6809;SDS011;3443;48.812;9.112;2023-07-29T05:22:00;1.17;;;1.08;;
6809;SDS011;3443;48.812;9.112;2023-07-29T05:24:26;1.58;;;1.08;;
6809;SDS011;3443;48.812;9.112;2023-07-29T05:26:53;1.70;;;1.17;;
6809;SDS011;3443;48.812;9.112;2023-07-29T05:29:19;1.10;;;0.95;;
6809;SDS011;3443;48.812;9.112;2023-07-29T05:31:44;1.30;;;1.20;;
6809;SDS011;3443;48.812;9.112;2023-07-29T05:34:10;1.33;;;1.13;;
6809;SDS011;3443;48.812;9.112;2023-07-29T05:36:36;1.33;;;1.10;;
6809;SDS011;3443;48.812;9.112;2023-07-29T05:39:04;0.88;;;0.70;;
6809;SDS011;3443;48.812;9.112;2023-07-29T05:41:30;0.75;;;0.75;;
6809;SDS011;3443;48.812;9.112;2023-07-29T05:43:56;1.38;;;0.80;;
6809;SDS011;3443;48.812;9.112;2023-07-29T05:46:22;1.00;;;1.00;;
6809;SDS011;3443;48.812;9.112;2023-07-29T05:48:48;1.88;;;0.73;;
6809;SDS011;3443;48.812;9.112;2023-07-29T05:51:14;0.88;;;0.80;;
6809;SDS011;3443;48.812;9.112;2023-07-29T05:53:40;1.98;;;0.98;;
6809;SDS011;3443;48.812;9.112;2023-07-29T05:56:05;1.02;;;1.02;;
6809;SDS011;3443;48.812;9.112;2023-07-29T05:58:31;2.55;;;1.08;;
6809;SDS011;3443;48.812;9.112;2023-07-29T06:00:58;0.82;;;0.82;;
6809;SDS011;3443;48.812;9.112;2023-07-29T06:03:24;0.60;;;0.60;;
6809;SDS011;3443;48.812;9.112;2023-07-29T06:05:50;2.38;;;0.70;;
6809;SDS011;3443;48.812;9.112;2023-07-29T06:08:16;1.05;;;0.80;;
6809;SDS011;3443;48.812;9.112;2023-07-29T06:10:42;3.50;;;0.82;;
6809;SDS011;3443;48.812;9.112;2023-07-29T06:13:08;5.80;;;0.70;;
6809;SDS011;3443;48.812;9.112;2023-07-29T06:15:34;6.60;;;0.95;;
6809;SDS011;3443;48.812;9.112;2023-07-29T06:18:00;1.95;;;1.00;;
6809;SDS011;3443;48.812;9.112;2023-07-29T06:20:26;4.32;;;0.82;;
6809;SDS011;3443;48.812;9.112;2023-07-29T06:22:52;1.30;;;0.73;;
6809;SDS011;3443;48.812;9.112;2023-07-29T06:25:18;4.00;;;1.02;;
6809;SDS011;3443;48.812;9.112;2023-07-29T06:27:44;3.83;;;0.98;;
6809;SDS011;3443;48.812;9.112;2023-07-29T06:30:10;2.90;;;0.98;;
6809;SDS011;3443;48.812;9.112;2023-07-29T06:32:36;2.08;;;0.85;;
6809;SDS011;3443;48.812;9.112;2023-07-29T06:35:02;0.98;;;0.80;;
6809;SDS011;3443;48.812;9.112;2023-07-29T06:37:28;0.77;;;0.77;;
6809;SDS011;3443;48.812;9.112;2023-07-29T06:39:54;2.80;;;1.05;;
6809;SDS011;3443;48.812;9.112;2023-07-29T06:42:20;1.20;;;1.20;;
6809;SDS011;3443;48.812;9.112;2023-07-29T06:44:46;1.00;;;1.00;;
6809;SDS011;3443;48.812;9.112;2023-07-29T06:47:12;1.20;;;1.00;;
6809;SDS011;3443;48.812;9.112;2023-07-29T06:49:38;1.00;;;0.80;;
6809;SDS011;3443;48.812;9.112;2023-07-29T06:52:04;0.88;;;0.85;;
6809;SDS011;3443;48.812;9.112;2023-07-29T06:54:30;1.17;;;1.00;;
6809;SDS011;3443;48.812;9.112;2023-07-29T06:56:56;0.73;;;0.70;;
6809;SDS011;3443;48.812;9.112;2023-07-29T06:59:22;0.68;;;0.68;;
6809;SDS011;3443;48.812;9.112;2023-07-29T07:01:49;0.60;;;0.60;;
6809;SDS011;3443;48.812;9.112;2023-07-29T07:04:15;0.77;;;0.70;;
6809;SDS011;3443;48.812;9.112;2023-07-29T07:06:41;0.77;;;0.77;;
6809;SDS011;3443;48.812;9.112;2023-07-29T07:09:07;0.50;;;0.50;;
6809;SDS011;3443;48.812;9.112;2023-07-29T07:11:33;0.80;;;0.80;;
6809;SDS011;3443;48.812;9.112;2023-07-29T07:13:59;0.85;;;0.80;;
6809;SDS011;3443;48.812;9.112;2023-07-29T07:16:25;2.20;;;0.80;;
6809;SDS011;3443;48.812;9.112;2023-07-29T07:18:54;1.83;;;0.70;;
6809;SDS011;3443;48.812;9.112;2023-07-29T07:21:20;0.70;;;0.70;;
6809;SDS011;3443;48.812;9.112;2023-07-29T07:23:46;1.42;;;0.52;;
6809;SDS011;3443;48.812;9.112;2023-07-29T07:26:14;1.50;;;1.00;;
6809;SDS011;3443;48.812;9.112;2023-07-29T07:28:40;0.68;;;0.68;;
6809;SDS011;3443;48.812;9.112;2023-07-29T07:31:06;0.65;;;0.50;;
6809;SDS011;3443;48.812;9.112;2023-07-29T07:33:32;0.60;;;0.60;;
6809;SDS011;3443;48.812;9.112;2023-07-29T07:35:58;0.80;;;0.50;;
6809;SDS011;3443;48.812;9.112;2023-07-29T07:38:24;0.40;;;0.40;;
6809;SDS011;3443;48.812;9.112;2023-07-29T07:40:56;1.02;;;1.00;;
6809;SDS011;3443;48.812;9.112;2023-07-29T07:43:23;0.70;;;0.70;;
6809;SDS011;3443;48.812;9.112;2023-07-29T07:45:49;1.63;;;0.50;;
6809;SDS011;3443;48.812;9.112;2023-07-29T07:48:15;0.68;;;0.60;;
6809;SDS011;3443;48.812;9.112;2023-07-29T07:50:42;0.60;;;0.60;;
6809;SDS011;3443;48.812;9.112;2023-07-29T07:53:08;0.60;;;0.40;;
6809;SDS011;3443;48.812;9.112;2023-07-29T07:55:34;2.45;;;0.50;;
6809;SDS011;3443;48.812;9.112;2023-07-29T07:58:00;1.58;;;0.50;;
6809;SDS011;3443;48.812;9.112;2023-07-29T08:00:25;0.52;;;0.40;;
6809;SDS011;3443;48.812;9.112;2023-07-29T08:02:51;0.40;;;0.40;;
6809;SDS011;3443;48.812;9.112;2023-07-29T08:05:18;1.65;;;0.55;;
6809;SDS011;3443;48.812;9.112;2023-07-29T08:07:44;0.32;;;0.32;;
6809;SDS011;3443;48.812;9.112;2023-07-29T08:10:10;0.40;;;0.40;;
6809;SDS011;3443;48.812;9.112;2023-07-29T08:12:36;0.50;;;0.45;;
6809;SDS011;3443;48.812;9.112;2023-07-29T08:15:02;0.32;;;0.32;;
6809;SDS011;3443;48.812;9.112;2023-07-29T08:17:28;0.68;;;0.60;;
6809;SDS011;3443;48.812;9.112;2023-07-29T08:19:54;0.50;;;0.50;;
6809;SDS011;3443;48.812;9.112;2023-07-29T08:22:20;0.63;;;0.45;;
6809;SDS011;3443;48.812;9.112;2023-07-29T08:24:46;0.43;;;0.43;;
6809;SDS011;3443;48.812;9.112;2023-07-29T08:27:12;1.85;;;0.50;;
6809;SDS011;3443;48.812;9.112;2023-07-29T08:29:38;0.75;;;0.70;;
6809;SDS011;3443;48.812;9.112;2023-07-29T08:32:04;0.73;;;0.60;;
6809;SDS011;3443;48.812;9.112;2023-07-29T08:34:30;0.50;;;0.50;;
6809;SDS011;3443;48.812;9.112;2023-07-29T08:36:56;1.23;;;0.60;;
6809;SDS011;3443;48.812;9.112;2023-07-29T08:39:22;0.95;;;0.60;;
6809;SDS011;3443;48.812;9.112;2023-07-29T08:41:50;0.60;;;0.60;;
6809;SDS011;3443;48.812;9.112;2023-07-29T08:44:19;0.40;;;0.38;;
6809;SDS011;3443;48.812;9.112;2023-07-29T08:46:47;1.73;;;0.50;;
6809;SDS011;3443;48.812;9.112;2023-07-29T08:49:13;0.50;;;0.50;;
6809;SDS011;3443;48.812;9.112;2023-07-29T08:51:41;0.63;;;0.57;;
6809;SDS011;3443;48.812;9.112;2023-07-29T08:54:08;0.50;;;0.50;;
6809;SDS011;3443;48.812;9.112;2023-07-29T08:56:36;0.75;;;0.50;;
6809;SDS011;3443;48.812;9.112;2023-07-29T08:59:02;0.95;;;0.55;;
6809;SDS011;3443;48.812;9.112;2023-07-29T09:01:29;0.40;;;0.40;;
6809;SDS011;3443;48.812;9.112;2023-07-29T09:03:56;0.32;;;0.32;;
6809;SDS011;3443;48.812;9.112;2023-07-29T09:06:22;0.50;;;0.50;;
6809;SDS011;3443;48.812;9.112;2023-07-29T09:08:50;0.50;;;0.50;;
6809;SDS011;3443;48.812;9.112;2023-07-29T09:11:17;2.05;;;0.43;;
6809;SDS011;3443;48.812;9.112;2023-07-29T09:13:44;0.50;;;0.45;;
6809;SDS011;3443;48.812;9.112;2023-07-29T09:16:10;0.47;;;0.47;;
6809;SDS011;3443;48.812;9.112;2023-07-29T09:18:36;0.35;;;0.35;;
6809;SDS011;3443;48.812;9.112;2023-07-29T09:21:02;0.50;;;0.50;;
6809;SDS011;3443;48.812;9.112;2023-07-29T09:23:38;0.50;;;0.50;;
6809;SDS011;3443;48.812;9.112;2023-07-29T09:26:05;0.50;;;0.50;;
6809;SDS011;3443;48.812;9.112;2023-07-29T09:28:34;0.52;;;0.52;;
6809;SDS011;3443;48.812;9.112;2023-07-29T09:31:01;0.50;;;0.40;;
6809;SDS011;3443;48.812;9.112;2023-07-29T09:33:27;0.80;;;0.73;;
6809;SDS011;3443;48.812;9.112;2023-07-29T09:35:53;0.40;;;0.40;;
6809;SDS011;3443;48.812;9.112;2023-07-29T09:38:25;0.55;;;0.50;;
6809;SDS011;3443;48.812;9.112;2023-07-29T09:40:51;3.13;;;0.50;;
6809;SDS011;3443;48.812;9.112;2023-07-29T09:43:20;0.32;;;0.32;;
6809;SDS011;3443;48.812;9.112;2023-07-29T09:45:51;0.43;;;0.43;;
6809;SDS011;3443;48.812;9.112;2023-07-29T09:48:19;0.40;;;0.40;;
6809;SDS011;3443;48.812;9.112;2023-07-29T09:50:48;0.50;;;0.50;;
6809;SDS011;3443;48.812;9.112;2023-07-29T09:53:14;1.45;;;0.55;;
6809;SDS011;3443;48.812;9.112;2023-07-29T09:55:40;0.50;;;0.50;;
6809;SDS011;3443;48.812;9.112;2023-07-29T09:58:11;0.50;;;0.50;;
6809;SDS011;3443;48.812;9.112;2023-07-29T10:00:37;0.60;;;0.60;;
6809;SDS011;3443;48.812;9.112;2023-07-29T10:03:05;0.50;;;0.40;;
6809;SDS011;3443;48.812;9.112;2023-07-29T10:05:32;0.50;;;0.50;;
6809;SDS011;3443;48.812;9.112;2023-07-29T10:08:00;0.57;;;0.52;;
6809;SDS011;3443;48.812;9.112;2023-07-29T10:10:27;0.70;;;0.70;;
6809;SDS011;3443;48.812;9.112;2023-07-29T10:12:54;1.77;;;0.70;;
6809;SDS011;3443;48.812;9.112;2023-07-29T10:15:20;0.70;;;0.70;;
6809;SDS011;3443;48.812;9.112;2023-07-29T10:17:46;0.57;;;0.57;;
6809;SDS011;3443;48.812;9.112;2023-07-29T10:20:12;0.77;;;0.77;;
6809;SDS011;3443;48.812;9.112;2023-07-29T10:22:39;0.50;;;0.50;;
6809;SDS011;3443;48.812;9.112;2023-07-29T10:27:38;0.30;;;0.30;;
6809;SDS011;3443;48.812;9.112;2023-07-29T10:30:07;0.40;;;0.40;;
6809;SDS011;3443;48.812;9.112;2023-07-29T10:32:34;0.30;;;0.30;;
6809;SDS011;3443;48.812;9.112;2023-07-29T10:35:00;0.70;;;0.38;;
6809;SDS011;3443;48.812;9.112;2023-07-29T10:37:26;1.00;;;0.50;;
6809;SDS011;3443;48.812;9.112;2023-07-29T10:39:53;0.40;;;0.40;;
6809;SDS011;3443;48.812;9.112;2023-07-29T10:42:19;3.22;;;0.50;;
6809;SDS011;3443;48.812;9.112;2023-07-29T10:44:45;0.50;;;0.50;;
6809;SDS011;3443;48.812;9.112;2023-07-29T10:49:40;0.50;;;0.50;;
6809;SDS011;3443;48.812;9.112;2023-07-29T10:52:06;0.43;;;0.43;;
6809;SDS011;3443;48.812;9.112;2023-07-29T10:54:41;1.08;;;0.40;;
6809;SDS011;3443;48.812;9.112;2023-07-29T10:57:07;0.75;;;0.35;;
6809;SDS011;3443;48.812;9.112;2023-07-29T10:59:34;0.57;;;0.57;;
6809;SDS011;3443;48.812;9.112;2023-07-29T11:02:00;0.50;;;0.45;;
6809;SDS011;3443;48.812;9.112;2023-07-29T11:04:27;0.40;;;0.40;;
6809;SDS011;3443;48.812;9.112;2023-07-29T11:12:37;0.50;;;0.50;;
6809;SDS011;3443;48.812;9.112;2023-07-29T11:17:37;0.43;;;0.43;;
6809;SDS011;3443;48.812;9.112;2023-07-29T11:20:04;0.65;;;0.60;;
6809;SDS011;3443;48.812;9.112;2023-07-29T11:22:32;0.75;;;0.50;;
6809;SDS011;3443;48.812;9.112;2023-07-29T11:24:58;0.50;;;0.50;;
6809;SDS011;3443;48.812;9.112;2023-07-29T11:27:24;1.98;;;0.50;;
6809;SDS011;3443;48.812;9.112;2023-07-29T11:29:50;1.45;;;0.60;;
6809;SDS011;3443;48.812;9.112;2023-07-29T11:32:16;0.40;;;0.40;;
6809;SDS011;3443;48.812;9.112;2023-07-29T11:34:42;0.40;;;0.40;;
6809;SDS011;3443;48.812;9.112;2023-07-29T11:37:10;0.52;;;0.52;;
6809;SDS011;3443;48.812;9.112;2023-07-29T11:39:40;0.70;;;0.70;;
6809;SDS011;3443;48.812;9.112;2023-07-29T11:42:06;0.50;;;0.50;;
6809;SDS011;3443;48.812;9.112;2023-07-29T11:44:32;0.40;;;0.40;;
6809;SDS011;3443;48.812;9.112;2023-07-29T11:46:58;0.60;;;0.60;;
6809;SDS011;3443;48.812;9.112;2023-07-29T11:49:24;0.38;;;0.38;;
6809;SDS011;3443;48.812;9.112;2023-07-29T11:51:50;0.47;;;0.47;;
6809;SDS011;3443;48.812;9.112;2023-07-29T11:54:16;3.13;;;0.40;;
6809;SDS011;3443;48.812;9.112;2023-07-29T11:56:46;0.60;;;0.60;;
6809;SDS011;3443;48.812;9.112;2023-07-29T11:59:12;0.55;;;0.55;;
6809;SDS011;3443;48.812;9.112;2023-07-29T12:01:38;0.63;;;0.63;;
6809;SDS011;3443;48.812;9.112;2023-07-29T12:04:04;0.50;;;0.50;;
6809;SDS011;3443;48.812;9.112;2023-07-29T12:06:30;0.50;;;0.50;;
6809;SDS011;3443;48.812;9.112;2023-07-29T12:08:56;0.57;;;0.57;;
6809;SDS011;3443;48.812;9.112;2023-07-29T12:11:23;0.55;;;0.55;;
6809;SDS011;3443;48.812;9.112;2023-07-29T12:13:49;0.70;;;0.70;;
6809;SDS011;3443;48.812;9.112;2023-07-29T12:16:18;0.68;;;0.68;;
6809;SDS011;3443;48.812;9.112;2023-07-29T12:18:44;0.70;;;0.70;;
6809;SDS011;3443;48.812;9.112;2023-07-29T12:21:10;2.13;;;0.75;;
6809;SDS011;3443;48.812;9.112;2023-07-29T12:23:36;0.63;;;0.63;;
6809;SDS011;3443;48.812;9.112;2023-07-29T12:26:02;2.28;;;0.82;;
6809;SDS011;3443;48.812;9.112;2023-07-29T12:28:28;0.70;;;0.70;;
6809;SDS011;3443;48.812;9.112;2023-07-29T12:30:57;0.70;;;0.70;;
6809;SDS011;3443;48.812;9.112;2023-07-29T12:33:34;0.70;;;0.70;;
6809;SDS011;3443;48.812;9.112;2023-07-29T12:36:00;0.88;;;0.88;;
6809;SDS011;3443;48.812;9.112;2023-07-29T12:38:27;1.35;;;0.80;;
6809;SDS011;3443;48.812;9.112;2023-07-29T12:40:53;0.70;;;0.70;;
6809;SDS011;3443;48.812;9.112;2023-07-29T12:43:19;0.88;;;0.88;;
6809;SDS011;3443;48.812;9.112;2023-07-29T12:45:45;0.60;;;0.60;;
6809;SDS011;3443;48.812;9.112;2023-07-29T12:48:11;0.60;;;0.60;;
6809;SDS011;3443;48.812;9.112;2023-07-29T12:50:37;0.85;;;0.80;;
6809;SDS011;3443;48.812;9.112;2023-07-29T12:53:06;0.65;;;0.65;;
6809;SDS011;3443;48.812;9.112;2023-07-29T12:55:33;0.60;;;0.60;;
6809;SDS011;3443;48.812;9.112;2023-07-29T12:57:59;1.95;;;0.70;;
6809;SDS011;3443;48.812;9.112;2023-07-29T13:00:25;0.77;;;0.77;;
6809;SDS011;3443;48.812;9.112;2023-07-29T13:02:51;0.52;;;0.52;;
6809;SDS011;3443;48.812;9.112;2023-07-29T13:05:17;1.48;;;0.80;;
6809;SDS011;3443;48.812;9.112;2023-07-29T13:07:43;1.48;;;1.38;;
6809;SDS011;3443;48.812;9.112;2023-07-29T13:10:10;0.55;;;0.55;;
6809;SDS011;3443;48.812;9.112;2023-07-29T13:12:36;1.95;;;0.85;;
6809;SDS011;3443;48.812;9.112;2023-07-29T13:15:02;0.70;;;0.70;;
6809;SDS011;3443;48.812;9.112;2023-07-29T13:17:28;1.00;;;0.70;;
6809;SDS011;3443;48.812;9.112;2023-07-29T13:19:54;0.60;;;0.60;;
6809;SDS011;3443;48.812;9.112;2023-07-29T13:22:20;0.60;;;0.60;;
6809;SDS011;3443;48.812;9.112;2023-07-29T13:24:46;0.80;;;0.80;;
6809;SDS011;3443;48.812;9.112;2023-07-29T13:27:12;0.80;;;0.80;;
6809;SDS011;3443;48.812;9.112;2023-07-29T13:29:39;0.60;;;0.60;;
6809;SDS011;3443;48.812;9.112;2023-07-29T13:32:06;0.70;;;0.70;;
6809;SDS011;3443;48.812;9.112;2023-07-29T13:34:32;0.60;;;0.60;;
6809;SDS011;3443;48.812;9.112;2023-07-29T13:36:59;0.63;;;0.63;;
6809;SDS011;3443;48.812;9.112;2023-07-29T13:39:25;0.70;;;0.70;;
6809;SDS011;3443;48.812;9.112;2023-07-29T13:41:52;1.83;;;0.70;;
6809;SDS011;3443;48.812;9.112;2023-07-29T13:44:18;0.75;;;0.75;;
6809;SDS011;3443;48.812;9.112;2023-07-29T13:46:44;0.70;;;0.70;;
6809;SDS011;3443;48.812;9.112;2023-07-29T13:49:10;1.42;;;0.55;;
6809;SDS011;3443;48.812;9.112;2023-07-29T13:51:36;0.52;;;0.52;;
6809;SDS011;3443;48.812;9.112;2023-07-29T13:54:02;0.80;;;0.80;;
6809;SDS011;3443;48.812;9.112;2023-07-29T13:56:29;0.82;;;0.77;;
6809;SDS011;3443;48.812;9.112;2023-07-29T13:58:55;0.80;;;0.80;;
6809;SDS011;3443;48.812;9.112;2023-07-29T14:01:21;1.02;;;0.82;;
6809;SDS011;3443;48.812;9.112;2023-07-29T14:03:47;0.85;;;0.85;;
6809;SDS011;3443;48.812;9.112;2023-07-29T14:06:13;0.88;;;0.88;;
6809;SDS011;3443;48.812;9.112;2023-07-29T14:08:39;0.70;;;0.70;;
6809;SDS011;3443;48.812;9.112;2023-07-29T14:11:06;0.60;;;0.60;;
6809;SDS011;3443;48.812;9.112;2023-07-29T14:13:33;0.70;;;0.63;;
6809;SDS011;3443;48.812;9.112;2023-07-29T14:16:02;1.58;;;0.70;;
6809;SDS011;3443;48.812;9.112;2023-07-29T14:18:28;1.95;;;0.73;;
6809;SDS011;3443;48.812;9.112;2023-07-29T14:20:54;0.95;;;0.95;;
6809;SDS011;3443;48.812;9.112;2023-07-29T14:23:20;0.70;;;0.70;;
6809;SDS011;3443;48.812;9.112;2023-07-29T14:25:46;0.75;;;0.65;;
6809;SDS011;3443;48.812;9.112;2023-07-29T14:28:12;0.80;;;0.80;;
6809;SDS011;3443;48.812;9.112;2023-07-29T14:30:39;0.60;;;0.60;;
6809;SDS011;3443;48.812;9.112;2023-07-29T14:33:06;0.65;;;0.65;;
6809;SDS011;3443;48.812;9.112;2023-07-29T14:35:32;0.70;;;0.70;;
6809;SDS011;3443;48.812;9.112;2023-07-29T14:37:58;0.73;;;0.70;;
6809;SDS011;3443;48.812;9.112;2023-07-29T14:40:24;0.65;;;0.65;;
6809;SDS011;3443;48.812;9.112;2023-07-29T14:42:50;0.88;;;0.88;;
6809;SDS011;3443;48.812;9.112;2023-07-29T14:45:16;0.95;;;0.70;;
6809;SDS011;3443;48.812;9.112;2023-07-29T14:47:42;1.33;;;1.00;;
6809;SDS011;3443;48.812;9.112;2023-07-29T14:50:08;0.90;;;0.90;;
6809;SDS011;3443;48.812;9.112;2023-07-29T14:52:34;2.17;;;2.10;;
6809;SDS011;3443;48.812;9.112;2023-07-29T14:55:00;1.40;;;1.40;;
6809;SDS011;3443;48.812;9.112;2023-07-29T14:57:26;0.70;;;0.70;;
6809;SDS011;3443;48.812;9.112;2023-07-29T14:59:52;0.75;;;0.75;;
6809;SDS011;3443;48.812;9.112;2023-07-29T15:02:18;0.90;;;0.90;;
6809;SDS011;3443;48.812;9.112;2023-07-29T15:04:43;1.10;;;1.00;;
6809;SDS011;3443;48.812;9.112;2023-07-29T15:07:09;0.85;;;0.80;;
6809;SDS011;3443;48.812;9.112;2023-07-29T15:09:34;0.70;;;0.70;;
6809;SDS011;3443;48.812;9.112;2023-07-29T15:12:01;0.95;;;0.95;;
6809;SDS011;3443;48.812;9.112;2023-07-29T15:14:26;0.70;;;0.70;;
6809;SDS011;3443;48.812;9.112;2023-07-29T15:16:52;1.00;;;1.00;;
6809;SDS011;3443;48.812;9.112;2023-07-29T15:19:17;0.95;;;0.95;;
6809;SDS011;3443;48.812;9.112;2023-07-29T15:21:43;0.98;;;0.98;;
6809;SDS011;3443;48.812;9.112;2023-07-29T15:24:09;1.00;;;1.00;;
6809;SDS011;3443;48.812;9.112;2023-07-29T15:26:34;1.15;;;1.15;;
6809;SDS011;3443;48.812;9.112;2023-07-29T15:29:00;0.93;;;0.80;;
6809;SDS011;3443;48.812;9.112;2023-07-29T15:31:26;1.15;;;1.15;;